sensor_id;sensor_type;location;lat;lon;timestamp;P1;durP1;ratioP1;P2;durP2;ratioP2
35969;SDS011;22448;51.298;6.430;2022-10-16T00:01:13;11.18;;;4.88;;
35969;SDS011;22448;51.298;6.430;2022-10-16T00:03:42;8.32;;;4.45;;
35969;SDS011;22448;51.298;6.430;2022-10-16T00:06:10;12.43;;;4.90;;
35969;SDS011;22448;51.298;6.430;2022-10-16T00:08:37;11.32;;;4.68;;
35969;SDS011;22448;51.298;6.430;2022-10-16T00:11:06;10.13;;;4.38;;
35969;SDS011;22448;51.298;6.430;2022-10-16T00:13:36;12.27;;;4.63;;
35969;SDS011;22448;51.298;6.430;2022-10-16T00:16:05;7.03;;;4.60;;
35969;SDS011;22448;51.298;6.430;2022-10-16T00:18:32;7.13;;;4.20;;
35969;SDS011;22448;51.298;6.430;2022-10-16T00:21:05;10.65;;;4.38;;
35969;SDS011;22448;51.298;6.430;2022-10-16T00:23:33;11.20;;;4.15;;
35969;SDS011;22448;51.298;6.430;2022-10-16T00:26:01;12.38;;;4.40;;
35969;SDS011;22448;51.298;6.430;2022-10-16T00:28:31;14.25;;;4.38;;
35969;SDS011;22448;51.298;6.430;2022-10-16T00:30:58;9.73;;;4.25;;
35969;SDS011;22448;51.298;6.430;2022-10-16T00:33:28;9.60;;;3.75;;
35969;SDS011;22448;51.298;6.430;2022-10-16T00:35:57;15.80;;;4.38;;
35969;SDS011;22448;51.298;6.430;2022-10-16T00:38:25;10.93;;;4.45;;
35969;SDS011;22448;51.298;6.430;2022-10-16T00:40:52;4.85;;;3.55;;
35969;SDS011;22448;51.298;6.430;2022-10-16T00:43:36;9.43;;;3.92;;
35969;SDS011;22448;51.298;6.430;2022-10-16T00:46:11;6.43;;;3.72;;
35969;SDS011;22448;51.298;6.430;2022-10-16T00:49:29;7.28;;;3.90;;
35969;SDS011;22448;51.298;6.430;2022-10-16T00:51:46;9.02;;;3.92;;
35969;SDS011;22448;51.298;6.430;2022-10-16T00:54:19;7.13;;;3.85;;
35969;SDS011;22448;51.298;6.430;2022-10-16T00:56:56;8.13;;;4.47;;
35969;SDS011;22448;51.298;6.430;2022-10-16T00:59:39;10.02;;;4.20;;
35969;SDS011;22448;51.298;6.430;2022-10-16T01:02:08;9.75;;;4.47;;
35969;SDS011;22448;51.298;6.430;2022-10-16T01:04:38;6.85;;;4.38;;
35969;SDS011;22448;51.298;6.430;2022-10-16T01:10:02;9.02;;;3.83;;
35969;SDS011;22448;51.298;6.430;2022-10-16T01:12:41;10.70;;;3.80;;
35969;SDS011;22448;51.298;6.430;2022-10-16T01:15:23;7.63;;;3.63;;
35969;SDS011;22448;51.298;6.430;2022-10-16T01:17:53;8.63;;;4.15;;
35969;SDS011;22448;51.298;6.430;2022-10-16T01:20:28;4.65;;;2.75;;
35969;SDS011;22448;51.298;6.430;2022-10-16T01:23:09;7.57;;;3.50;;
35969;SDS011;22448;51.298;6.430;2022-10-16T01:28:42;8.90;;;3.80;;
35969;SDS011;22448;51.298;6.430;2022-10-16T01:31:17;8.55;;;3.60;;
35969;SDS011;22448;51.298;6.430;2022-10-16T01:33:47;7.78;;;3.95;;
35969;SDS011;22448;51.298;6.430;2022-10-16T01:36:21;12.13;;;3.75;;
35969;SDS011;22448;51.298;6.430;2022-10-16T01:38:56;6.43;;;3.50;;
35969;SDS011;22448;51.298;6.430;2022-10-16T01:44:02;9.18;;;3.65;;
35969;SDS011;22448;51.298;6.430;2022-10-16T01:46:32;8.43;;;3.17;;
35969;SDS011;22448;51.298;6.430;2022-10-16T01:49:02;10.05;;;3.67;;
35969;SDS011;22448;51.298;6.430;2022-10-16T01:51:30;4.43;;;3.17;;
35969;SDS011;22448;51.298;6.430;2022-10-16T01:53:59;5.40;;;3.45;;
35969;SDS011;22448;51.298;6.430;2022-10-16T01:56:27;16.65;;;3.38;;
35969;SDS011;22448;51.298;6.430;2022-10-16T01:58:57;7.10;;;3.05;;
35969;SDS011;22448;51.298;6.430;2022-10-16T02:01:54;6.45;;;2.97;;
35969;SDS011;22448;51.298;6.430;2022-10-16T02:04:33;3.28;;;2.60;;
35969;SDS011;22448;51.298;6.430;2022-10-16T02:07:04;5.90;;;3.13;;
35969;SDS011;22448;51.298;6.430;2022-10-16T02:09:32;5.78;;;3.00;;
35969;SDS011;22448;51.298;6.430;2022-10-16T02:12:03;10.23;;;3.42;;
35969;SDS011;22448;51.298;6.430;2022-10-16T02:14:37;5.50;;;3.20;;
35969;SDS011;22448;51.298;6.430;2022-10-16T02:17:15;6.85;;;3.25;;
35969;SDS011;22448;51.298;6.430;2022-10-16T02:19:44;5.18;;;2.63;;
35969;SDS011;22448;51.298;6.430;2022-10-16T02:25:15;8.65;;;3.13;;
35969;SDS011;22448;51.298;6.430;2022-10-16T02:27:48;6.13;;;2.88;;
35969;SDS011;22448;51.298;6.430;2022-10-16T02:30:29;5.25;;;3.22;;
35969;SDS011;22448;51.298;6.430;2022-10-16T02:33:03;12.00;;;3.10;;
35969;SDS011;22448;51.298;6.430;2022-10-16T02:35:33;8.68;;;3.00;;
35969;SDS011;22448;51.298;6.430;2022-10-16T02:38:01;5.18;;;2.80;;
35969;SDS011;22448;51.298;6.430;2022-10-16T02:40:29;5.72;;;2.92;;
35969;SDS011;22448;51.298;6.430;2022-10-16T02:42:56;7.70;;;2.60;;
35969;SDS011;22448;51.298;6.430;2022-10-16T02:45:24;3.67;;;2.60;;
35969;SDS011;22448;51.298;6.430;2022-10-16T02:47:51;7.45;;;2.58;;
35969;SDS011;22448;51.298;6.430;2022-10-16T02:50:18;7.25;;;2.60;;
35969;SDS011;22448;51.298;6.430;2022-10-16T02:52:45;7.68;;;2.60;;
35969;SDS011;22448;51.298;6.430;2022-10-16T02:55:12;3.42;;;2.50;;
35969;SDS011;22448;51.298;6.430;2022-10-16T02:57:40;6.28;;;2.28;;
35969;SDS011;22448;51.298;6.430;2022-10-16T03:00:08;4.38;;;2.20;;
35969;SDS011;22448;51.298;6.430;2022-10-16T03:02:36;3.38;;;2.40;;
35969;SDS011;22448;51.298;6.430;2022-10-16T03:05:03;6.07;;;2.08;;
35969;SDS011;22448;51.298;6.430;2022-10-16T03:07:30;5.03;;;2.00;;
35969;SDS011;22448;51.298;6.430;2022-10-16T03:09:57;3.10;;;2.13;;
35969;SDS011;22448;51.298;6.430;2022-10-16T03:12:27;3.47;;;2.20;;
35969;SDS011;22448;51.298;6.430;2022-10-16T03:14:57;6.00;;;2.10;;
35969;SDS011;22448;51.298;6.430;2022-10-16T03:17:24;4.97;;;1.90;;
35969;SDS011;22448;51.298;6.430;2022-10-16T03:19:52;2.83;;;1.85;;
35969;SDS011;22448;51.298;6.430;2022-10-16T03:22:19;3.95;;;1.90;;
35969;SDS011;22448;51.298;6.430;2022-10-16T03:24:46;4.13;;;1.80;;
35969;SDS011;22448;51.298;6.430;2022-10-16T03:27:13;5.43;;;1.90;;
35969;SDS011;22448;51.298;6.430;2022-10-16T03:29:40;7.13;;;1.55;;
35969;SDS011;22448;51.298;6.430;2022-10-16T03:32:07;1.88;;;1.27;;
35969;SDS011;22448;51.298;6.430;2022-10-16T03:34:34;3.55;;;1.77;;
35969;SDS011;22448;51.298;6.430;2022-10-16T03:37:01;4.72;;;1.48;;
35969;SDS011;22448;51.298;6.430;2022-10-16T03:39:28;4.10;;;1.98;;
35969;SDS011;22448;51.298;6.430;2022-10-16T03:41:55;2.65;;;1.70;;
35969;SDS011;22448;51.298;6.430;2022-10-16T03:44:21;2.42;;;1.50;;
35969;SDS011;22448;51.298;6.430;2022-10-16T03:46:48;3.60;;;1.45;;
35969;SDS011;22448;51.298;6.430;2022-10-16T03:49:15;3.30;;;1.50;;
35969;SDS011;22448;51.298;6.430;2022-10-16T03:51:42;2.83;;;1.38;;
35969;SDS011;22448;51.298;6.430;2022-10-16T03:54:10;1.90;;;1.50;;
35969;SDS011;22448;51.298;6.430;2022-10-16T03:56:37;4.00;;;1.85;;
35969;SDS011;22448;51.298;6.430;2022-10-16T03:59:04;2.38;;;1.30;;
35969;SDS011;22448;51.298;6.430;2022-10-16T04:01:31;4.25;;;1.90;;
35969;SDS011;22448;51.298;6.430;2022-10-16T04:03:58;2.45;;;1.70;;
35969;SDS011;22448;51.298;6.430;2022-10-16T04:06:25;4.32;;;1.50;;
35969;SDS011;22448;51.298;6.430;2022-10-16T04:08:52;3.53;;;1.60;;
35969;SDS011;22448;51.298;6.430;2022-10-16T04:11:19;5.50;;;1.73;;
35969;SDS011;22448;51.298;6.430;2022-10-16T04:13:46;1.83;;;1.52;;
35969;SDS011;22448;51.298;6.430;2022-10-16T04:16:13;5.90;;;1.85;;
35969;SDS011;22448;51.298;6.430;2022-10-16T04:18:40;3.60;;;1.70;;
35969;SDS011;22448;51.298;6.430;2022-10-16T04:21:07;4.28;;;1.80;;
35969;SDS011;22448;51.298;6.430;2022-10-16T04:23:34;2.50;;;1.70;;
35969;SDS011;22448;51.298;6.430;2022-10-16T04:26:01;4.43;;;1.77;;
35969;SDS011;22448;51.298;6.430;2022-10-16T04:28:28;2.00;;;1.40;;
35969;SDS011;22448;51.298;6.430;2022-10-16T04:30:55;3.88;;;1.50;;
35969;SDS011;22448;51.298;6.430;2022-10-16T04:33:22;4.30;;;1.80;;
35969;SDS011;22448;51.298;6.430;2022-10-16T04:35:55;6.10;;;2.00;;
35969;SDS011;22448;51.298;6.430;2022-10-16T04:38:23;6.38;;;1.75;;
35969;SDS011;22448;51.298;6.430;2022-10-16T04:40:50;6.28;;;1.95;;
35969;SDS011;22448;51.298;6.430;2022-10-16T04:43:18;3.17;;;2.03;;
35969;SDS011;22448;51.298;6.430;2022-10-16T04:45:45;3.42;;;1.65;;
35969;SDS011;22448;51.298;6.430;2022-10-16T04:48:12;3.90;;;1.70;;
35969;SDS011;22448;51.298;6.430;2022-10-16T04:50:39;3.03;;;1.60;;
35969;SDS011;22448;51.298;6.430;2022-10-16T04:53:06;3.72;;;1.85;;
35969;SDS011;22448;51.298;6.430;2022-10-16T04:55:33;11.07;;;2.13;;
35969;SDS011;22448;51.298;6.430;2022-10-16T04:58:01;4.78;;;1.90;;
35969;SDS011;22448;51.298;6.430;2022-10-16T05:00:28;2.35;;;1.80;;
35969;SDS011;22448;51.298;6.430;2022-10-16T05:02:54;4.53;;;1.92;;
35969;SDS011;22448;51.298;6.430;2022-10-16T05:05:21;4.55;;;1.90;;
35969;SDS011;22448;51.298;6.430;2022-10-16T05:07:49;3.33;;;1.92;;
35969;SDS011;22448;51.298;6.430;2022-10-16T05:10:16;3.92;;;1.80;;
35969;SDS011;22448;51.298;6.430;2022-10-16T05:12:43;7.70;;;2.47;;
35969;SDS011;22448;51.298;6.430;2022-10-16T05:15:10;4.70;;;1.77;;
35969;SDS011;22448;51.298;6.430;2022-10-16T05:17:37;3.55;;;2.17;;
35969;SDS011;22448;51.298;6.430;2022-10-16T05:20:10;2.03;;;1.58;;
35969;SDS011;22448;51.298;6.430;2022-10-16T05:22:38;2.50;;;2.30;;
35969;SDS011;22448;51.298;6.430;2022-10-16T05:25:04;6.05;;;2.08;;
35969;SDS011;22448;51.298;6.430;2022-10-16T05:27:32;3.17;;;2.30;;
35969;SDS011;22448;51.298;6.430;2022-10-16T05:29:59;6.15;;;2.60;;
35969;SDS011;22448;51.298;6.430;2022-10-16T05:32:26;3.65;;;2.58;;
35969;SDS011;22448;51.298;6.430;2022-10-16T05:34:53;4.47;;;2.63;;
35969;SDS011;22448;51.298;6.430;2022-10-16T05:37:20;7.43;;;2.55;;
35969;SDS011;22448;51.298;6.430;2022-10-16T05:39:47;4.95;;;2.72;;
35969;SDS011;22448;51.298;6.430;2022-10-16T05:42:14;4.38;;;2.40;;
35969;SDS011;22448;51.298;6.430;2022-10-16T05:44:41;6.10;;;2.60;;
35969;SDS011;22448;51.298;6.430;2022-10-16T05:47:08;6.78;;;2.80;;
35969;SDS011;22448;51.298;6.430;2022-10-16T05:49:37;3.53;;;2.50;;
35969;SDS011;22448;51.298;6.430;2022-10-16T05:52:06;3.55;;;2.88;;
35969;SDS011;22448;51.298;6.430;2022-10-16T05:54:33;4.18;;;2.75;;
35969;SDS011;22448;51.298;6.430;2022-10-16T05:57:00;4.72;;;2.58;;
35969;SDS011;22448;51.298;6.430;2022-10-16T05:59:28;4.63;;;3.03;;
35969;SDS011;22448;51.298;6.430;2022-10-16T06:01:55;4.15;;;2.85;;
35969;SDS011;22448;51.298;6.430;2022-10-16T06:04:21;5.82;;;3.08;;
35969;SDS011;22448;51.298;6.430;2022-10-16T06:06:49;9.32;;;3.33;;
35969;SDS011;22448;51.298;6.430;2022-10-16T06:09:16;4.53;;;2.63;;
35969;SDS011;22448;51.298;6.430;2022-10-16T06:11:43;4.28;;;3.20;;
35969;SDS011;22448;51.298;6.430;2022-10-16T06:14:10;7.55;;;3.03;;
35969;SDS011;22448;51.298;6.430;2022-10-16T06:16:37;5.97;;;3.28;;
35969;SDS011;22448;51.298;6.430;2022-10-16T06:19:04;6.28;;;3.33;;
35969;SDS011;22448;51.298;6.430;2022-10-16T06:21:35;8.98;;;3.15;;
35969;SDS011;22448;51.298;6.430;2022-10-16T06:24:02;5.03;;;4.00;;
35969;SDS011;22448;51.298;6.430;2022-10-16T06:26:30;7.07;;;3.75;;
35969;SDS011;22448;51.298;6.430;2022-10-16T06:28:58;4.88;;;3.88;;
35969;SDS011;22448;51.298;6.430;2022-10-16T06:31:26;7.63;;;3.38;;
35969;SDS011;22448;51.298;6.430;2022-10-16T06:33:57;8.77;;;4.18;;
35969;SDS011;22448;51.298;6.430;2022-10-16T06:36:24;8.95;;;3.83;;
35969;SDS011;22448;51.298;6.430;2022-10-16T06:38:51;5.90;;;3.40;;
35969;SDS011;22448;51.298;6.430;2022-10-16T06:41:20;10.85;;;3.30;;
35969;SDS011;22448;51.298;6.430;2022-10-16T06:43:48;6.32;;;3.60;;
35969;SDS011;22448;51.298;6.430;2022-10-16T06:46:16;4.75;;;3.58;;
35969;SDS011;22448;51.298;6.430;2022-10-16T06:48:45;3.90;;;3.55;;
35969;SDS011;22448;51.298;6.430;2022-10-16T06:51:12;5.50;;;3.38;;
35969;SDS011;22448;51.298;6.430;2022-10-16T06:53:42;9.30;;;3.50;;
35969;SDS011;22448;51.298;6.430;2022-10-16T06:56:28;5.68;;;4.00;;
35969;SDS011;22448;51.298;6.430;2022-10-16T06:58:58;7.53;;;3.72;;
35969;SDS011;22448;51.298;6.430;2022-10-16T07:01:25;5.90;;;4.13;;
35969;SDS011;22448;51.298;6.430;2022-10-16T07:03:53;6.38;;;3.50;;
35969;SDS011;22448;51.298;6.430;2022-10-16T07:06:20;4.05;;;3.65;;
35969;SDS011;22448;51.298;6.430;2022-10-16T07:08:49;5.05;;;3.55;;
35969;SDS011;22448;51.298;6.430;2022-10-16T07:11:16;13.15;;;4.35;;
35969;SDS011;22448;51.298;6.430;2022-10-16T07:13:46;7.70;;;3.50;;
35969;SDS011;22448;51.298;6.430;2022-10-16T07:16:22;9.23;;;4.78;;
35969;SDS011;22448;51.298;6.430;2022-10-16T07:18:54;5.55;;;4.03;;
35969;SDS011;22448;51.298;6.430;2022-10-16T07:21:27;11.43;;;5.05;;
35969;SDS011;22448;51.298;6.430;2022-10-16T07:23:57;8.63;;;4.38;;
35969;SDS011;22448;51.298;6.430;2022-10-16T07:26:28;8.23;;;4.57;;
35969;SDS011;22448;51.298;6.430;2022-10-16T07:28:57;8.02;;;4.43;;
35969;SDS011;22448;51.298;6.430;2022-10-16T07:31:24;8.90;;;4.25;;
35969;SDS011;22448;51.298;6.430;2022-10-16T07:33:52;7.70;;;4.50;;
35969;SDS011;22448;51.298;6.430;2022-10-16T07:36:19;10.75;;;4.85;;
35969;SDS011;22448;51.298;6.430;2022-10-16T07:38:47;5.97;;;4.03;;
35969;SDS011;22448;51.298;6.430;2022-10-16T07:41:16;8.60;;;4.38;;
35969;SDS011;22448;51.298;6.430;2022-10-16T07:43:45;6.90;;;4.00;;
35969;SDS011;22448;51.298;6.430;2022-10-16T07:46:16;9.52;;;3.92;;
35969;SDS011;22448;51.298;6.430;2022-10-16T07:48:45;8.63;;;3.45;;
35969;SDS011;22448;51.298;6.430;2022-10-16T07:51:14;12.55;;;3.60;;
35969;SDS011;22448;51.298;6.430;2022-10-16T07:53:43;9.65;;;3.35;;
35969;SDS011;22448;51.298;6.430;2022-10-16T07:56:10;11.32;;;3.17;;
35969;SDS011;22448;51.298;6.430;2022-10-16T07:58:38;5.53;;;2.20;;
35969;SDS011;22448;51.298;6.430;2022-10-16T08:01:07;6.70;;;2.63;;
35969;SDS011;22448;51.298;6.430;2022-10-16T08:03:36;4.28;;;2.08;;
35969;SDS011;22448;51.298;6.430;2022-10-16T08:06:03;5.72;;;2.28;;
35969;SDS011;22448;51.298;6.430;2022-10-16T08:08:31;5.68;;;2.03;;
35969;SDS011;22448;51.298;6.430;2022-10-16T08:10:58;10.07;;;2.15;;
35969;SDS011;22448;51.298;6.430;2022-10-16T08:13:25;7.32;;;2.00;;
35969;SDS011;22448;51.298;6.430;2022-10-16T08:15:53;6.82;;;1.60;;
35969;SDS011;22448;51.298;6.430;2022-10-16T08:18:20;7.90;;;1.63;;
35969;SDS011;22448;51.298;6.430;2022-10-16T08:20:54;5.70;;;1.85;;
35969;SDS011;22448;51.298;6.430;2022-10-16T08:23:23;7.47;;;1.50;;
35969;SDS011;22448;51.298;6.430;2022-10-16T08:25:52;5.72;;;1.42;;
35969;SDS011;22448;51.298;6.430;2022-10-16T08:28:22;3.15;;;1.23;;
35969;SDS011;22448;51.298;6.430;2022-10-16T08:30:49;5.57;;;1.17;;
35969;SDS011;22448;51.298;6.430;2022-10-16T08:33:16;5.55;;;1.38;;
35969;SDS011;22448;51.298;6.430;2022-10-16T08:35:49;6.00;;;1.10;;
35969;SDS011;22448;51.298;6.430;2022-10-16T08:38:20;5.25;;;1.13;;
35969;SDS011;22448;51.298;6.430;2022-10-16T08:40:47;3.17;;;1.33;;
35969;SDS011;22448;51.298;6.430;2022-10-16T08:48:54;4.85;;;1.05;;
35969;SDS011;22448;51.298;6.430;2022-10-16T08:51:24;4.05;;;1.27;;
35969;SDS011;22448;51.298;6.430;2022-10-16T08:53:58;1.95;;;1.08;;
35969;SDS011;22448;51.298;6.430;2022-10-16T08:56:29;7.03;;;1.02;;
35969;SDS011;22448;51.298;6.430;2022-10-16T08:58:57;3.75;;;1.23;;
35969;SDS011;22448;51.298;6.430;2022-10-16T09:01:41;3.72;;;1.23;;
35969;SDS011;22448;51.298;6.430;2022-10-16T09:04:23;5.75;;;1.13;;
35969;SDS011;22448;51.298;6.430;2022-10-16T09:10:08;4.97;;;1.15;;
35969;SDS011;22448;51.298;6.430;2022-10-16T09:15:48;3.30;;;0.90;;
35969;SDS011;22448;51.298;6.430;2022-10-16T09:21:16;5.32;;;1.30;;
35969;SDS011;22448;51.298;6.430;2022-10-16T09:23:47;4.75;;;1.50;;
35969;SDS011;22448;51.298;6.430;2022-10-16T09:26:15;6.07;;;2.58;;
35969;SDS011;22448;51.298;6.430;2022-10-16T09:28:44;6.35;;;1.38;;
35969;SDS011;22448;51.298;6.430;2022-10-16T09:31:18;4.75;;;1.30;;
35969;SDS011;22448;51.298;6.430;2022-10-16T09:33:52;6.60;;;1.30;;
35969;SDS011;22448;51.298;6.430;2022-10-16T09:36:24;4.35;;;0.90;;
35969;SDS011;22448;51.298;6.430;2022-10-16T09:39:03;3.97;;;1.15;;
35969;SDS011;22448;51.298;6.430;2022-10-16T09:41:40;2.30;;;1.10;;
35969;SDS011;22448;51.298;6.430;2022-10-16T09:44:21;6.63;;;1.25;;
35969;SDS011;22448;51.298;6.430;2022-10-16T09:47:02;6.00;;;1.23;;
35969;SDS011;22448;51.298;6.430;2022-10-16T09:49:28;4.32;;;1.05;;
35969;SDS011;22448;51.298;6.430;2022-10-16T09:52:05;6.60;;;1.17;;
35969;SDS011;22448;51.298;6.430;2022-10-16T09:54:37;9.57;;;1.50;;
35969;SDS011;22448;51.298;6.430;2022-10-16T09:57:14;4.32;;;1.10;;
35969;SDS011;22448;51.298;6.430;2022-10-16T09:59:48;3.35;;;1.10;;
35969;SDS011;22448;51.298;6.430;2022-10-16T10:02:18;9.15;;;1.25;;
35969;SDS011;22448;51.298;6.430;2022-10-16T10:04:53;6.35;;;1.52;;
35969;SDS011;22448;51.298;6.430;2022-10-16T10:07:23;4.43;;;1.08;;
35969;SDS011;22448;51.298;6.430;2022-10-16T10:09:59;8.18;;;1.17;;
35969;SDS011;22448;51.298;6.430;2022-10-16T10:12:28;9.23;;;1.25;;
35969;SDS011;22448;51.298;6.430;2022-10-16T10:15:07;6.65;;;1.92;;
35969;SDS011;22448;51.298;6.430;2022-10-16T10:17:45;4.22;;;1.88;;
35969;SDS011;22448;51.298;6.430;2022-10-16T10:22:55;5.65;;;1.40;;
35969;SDS011;22448;51.298;6.430;2022-10-16T10:30:47;5.93;;;1.10;;
35969;SDS011;22448;51.298;6.430;2022-10-16T10:36:38;8.13;;;1.30;;
35969;SDS011;22448;51.298;6.430;2022-10-16T10:39:15;5.82;;;0.95;;
35969;SDS011;22448;51.298;6.430;2022-10-16T10:41:57;3.38;;;1.05;;
35969;SDS011;22448;51.298;6.430;2022-10-16T10:53:20;4.80;;;0.95;;
35969;SDS011;22448;51.298;6.430;2022-10-16T10:59:01;4.07;;;1.08;;
35969;SDS011;22448;51.298;6.430;2022-10-16T11:10:34;4.93;;;1.42;;
35969;SDS011;22448;51.298;6.430;2022-10-16T11:13:26;5.68;;;1.50;;
35969;SDS011;22448;51.298;6.430;2022-10-16T11:15:58;12.85;;;4.15;;
35969;SDS011;22448;51.298;6.430;2022-10-16T11:21:08;6.85;;;1.20;;
35969;SDS011;22448;51.298;6.430;2022-10-16T11:23:41;7.43;;;3.25;;
35969;SDS011;22448;51.298;6.430;2022-10-16T11:26:23;9.65;;;2.47;;
35969;SDS011;22448;51.298;6.430;2022-10-16T11:28:54;3.75;;;1.02;;
35969;SDS011;22448;51.298;6.430;2022-10-16T11:31:29;6.75;;;1.20;;
35969;SDS011;22448;51.298;6.430;2022-10-16T11:34:04;3.92;;;1.23;;
35969;SDS011;22448;51.298;6.430;2022-10-16T11:36:47;5.43;;;1.10;;
35969;SDS011;22448;51.298;6.430;2022-10-16T11:39:34;5.90;;;1.40;;
35969;SDS011;22448;51.298;6.430;2022-10-16T11:44:45;5.05;;;1.00;;
35969;SDS011;22448;51.298;6.430;2022-10-16T11:50:31;3.45;;;0.90;;
35969;SDS011;22448;51.298;6.430;2022-10-16T11:53:22;7.75;;;2.55;;
35969;SDS011;22448;51.298;6.430;2022-10-16T11:56:11;7.55;;;2.55;;
35969;SDS011;22448;51.298;6.430;2022-10-16T11:58:56;4.07;;;2.30;;
35969;SDS011;22448;51.298;6.430;2022-10-16T12:01:45;6.75;;;1.38;;
35969;SDS011;22448;51.298;6.430;2022-10-16T12:04:30;5.50;;;1.35;;
35969;SDS011;22448;51.298;6.430;2022-10-16T12:07:12;3.50;;;0.93;;
35969;SDS011;22448;51.298;6.430;2022-10-16T12:09:45;2.85;;;0.80;;
35969;SDS011;22448;51.298;6.430;2022-10-16T12:12:25;8.02;;;1.05;;
35969;SDS011;22448;51.298;6.430;2022-10-16T12:15:15;7.78;;;1.67;;
35969;SDS011;22448;51.298;6.430;2022-10-16T12:18:21;7.07;;;1.17;;
35969;SDS011;22448;51.298;6.430;2022-10-16T12:20:56;5.85;;;1.20;;
35969;SDS011;22448;51.298;6.430;2022-10-16T12:23:27;4.38;;;1.20;;
35969;SDS011;22448;51.298;6.430;2022-10-16T12:25:54;6.88;;;1.20;;
35969;SDS011;22448;51.298;6.430;2022-10-16T12:28:26;7.03;;;1.15;;
35969;SDS011;22448;51.298;6.430;2022-10-16T12:30:59;5.55;;;1.00;;
35969;SDS011;22448;51.298;6.430;2022-10-16T12:33:32;5.90;;;1.10;;
35969;SDS011;22448;51.298;6.430;2022-10-16T12:36:02;5.68;;;1.10;;
35969;SDS011;22448;51.298;6.430;2022-10-16T12:38:45;2.40;;;1.00;;
35969;SDS011;22448;51.298;6.430;2022-10-16T12:41:23;5.88;;;2.25;;
35969;SDS011;22448;51.298;6.430;2022-10-16T12:43:52;8.00;;;1.42;;
35969;SDS011;22448;51.298;6.430;2022-10-16T12:46:21;6.60;;;1.05;;
35969;SDS011;22448;51.298;6.430;2022-10-16T12:49:14;7.80;;;1.10;;
35969;SDS011;22448;51.298;6.430;2022-10-16T12:52:04;6.15;;;1.08;;
35969;SDS011;22448;51.298;6.430;2022-10-16T12:54:50;5.68;;;1.00;;
35969;SDS011;22448;51.298;6.430;2022-10-16T13:00:31;8.40;;;1.90;;
35969;SDS011;22448;51.298;6.430;2022-10-16T13:06:47;4.47;;;0.90;;
35969;SDS011;22448;51.298;6.430;2022-10-16T13:17:18;8.23;;;1.80;;
35969;SDS011;22448;51.298;6.430;2022-10-16T13:28:07;4.60;;;1.02;;
35969;SDS011;22448;51.298;6.430;2022-10-16T13:30:40;5.28;;;1.10;;
35969;SDS011;22448;51.298;6.430;2022-10-16T13:35:51;8.57;;;1.35;;
35969;SDS011;22448;51.298;6.430;2022-10-16T13:38:23;6.53;;;1.50;;
35969;SDS011;22448;51.298;6.430;2022-10-16T13:40:55;6.10;;;0.95;;
35969;SDS011;22448;51.298;6.430;2022-10-16T13:43:37;2.72;;;0.93;;
35969;SDS011;22448;51.298;6.430;2022-10-16T13:46:14;7.40;;;1.10;;
35969;SDS011;22448;51.298;6.430;2022-10-16T13:48:43;7.03;;;1.05;;
35969;SDS011;22448;51.298;6.430;2022-10-16T13:51:12;4.07;;;0.77;;
35969;SDS011;22448;51.298;6.430;2022-10-16T13:53:44;2.50;;;1.00;;
35969;SDS011;22448;51.298;6.430;2022-10-16T13:56:16;6.30;;;1.48;;
35969;SDS011;22448;51.298;6.430;2022-10-16T14:01:24;6.72;;;1.65;;
35969;SDS011;22448;51.298;6.430;2022-10-16T14:04:05;7.78;;;1.90;;
35969;SDS011;22448;51.298;6.430;2022-10-16T14:06:36;8.68;;;2.78;;
35969;SDS011;22448;51.298;6.430;2022-10-16T14:11:55;8.07;;;2.30;;
35969;SDS011;22448;51.298;6.430;2022-10-16T14:16:57;4.65;;;0.80;;
35969;SDS011;22448;51.298;6.430;2022-10-16T14:19:25;4.38;;;0.95;;
35969;SDS011;22448;51.298;6.430;2022-10-16T14:21:54;4.28;;;1.00;;
35969;SDS011;22448;51.298;6.430;2022-10-16T14:24:43;6.60;;;1.27;;
35969;SDS011;22448;51.298;6.430;2022-10-16T14:30:14;3.95;;;1.60;;
35969;SDS011;22448;51.298;6.430;2022-10-16T14:32:57;3.50;;;1.23;;
35969;SDS011;22448;51.298;6.430;2022-10-16T14:35:30;5.43;;;1.25;;
35969;SDS011;22448;51.298;6.430;2022-10-16T14:38:02;4.35;;;1.27;;
35969;SDS011;22448;51.298;6.430;2022-10-16T14:40:31;4.93;;;1.10;;
35969;SDS011;22448;51.298;6.430;2022-10-16T14:43:01;3.35;;;1.02;;
35969;SDS011;22448;51.298;6.430;2022-10-16T14:45:30;5.38;;;1.00;;
35969;SDS011;22448;51.298;6.430;2022-10-16T14:48:00;3.67;;;0.93;;
35969;SDS011;22448;51.298;6.430;2022-10-16T14:50:31;6.93;;;1.27;;
35969;SDS011;22448;51.298;6.430;2022-10-16T14:52:58;2.92;;;0.85;;
35969;SDS011;22448;51.298;6.430;2022-10-16T14:55:25;6.03;;;1.20;;
35969;SDS011;22448;51.298;6.430;2022-10-16T14:57:52;7.03;;;1.00;;
35969;SDS011;22448;51.298;6.430;2022-10-16T15:00:25;3.55;;;1.10;;
35969;SDS011;22448;51.298;6.430;2022-10-16T15:02:52;4.38;;;0.82;;
35969;SDS011;22448;51.298;6.430;2022-10-16T15:05:28;4.60;;;0.73;;
35969;SDS011;22448;51.298;6.430;2022-10-16T15:07:56;9.85;;;1.40;;
35969;SDS011;22448;51.298;6.430;2022-10-16T15:10:23;4.47;;;0.90;;
35969;SDS011;22448;51.298;6.430;2022-10-16T15:12:52;4.90;;;1.00;;
35969;SDS011;22448;51.298;6.430;2022-10-16T15:17:49;7.38;;;0.90;;
35969;SDS011;22448;51.298;6.430;2022-10-16T15:20:19;10.43;;;1.30;;
35969;SDS011;22448;51.298;6.430;2022-10-16T15:22:46;11.82;;;1.23;;
35969;SDS011;22448;51.298;6.430;2022-10-16T15:27:49;7.50;;;1.45;;
35969;SDS011;22448;51.298;6.430;2022-10-16T15:30:17;9.20;;;2.05;;
35969;SDS011;22448;51.298;6.430;2022-10-16T15:32:43;5.50;;;1.50;;
35969;SDS011;22448;51.298;6.430;2022-10-16T15:35:10;9.32;;;1.90;;
35969;SDS011;22448;51.298;6.430;2022-10-16T15:37:37;4.60;;;1.50;;
35969;SDS011;22448;51.298;6.430;2022-10-16T15:40:04;5.00;;;1.65;;
35969;SDS011;22448;51.298;6.430;2022-10-16T15:42:31;5.15;;;1.50;;
35969;SDS011;22448;51.298;6.430;2022-10-16T15:44:58;7.80;;;1.52;;
35969;SDS011;22448;51.298;6.430;2022-10-16T15:47:25;7.13;;;1.25;;
35969;SDS011;22448;51.298;6.430;2022-10-16T15:49:52;4.75;;;1.58;;
35969;SDS011;22448;51.298;6.430;2022-10-16T15:52:19;4.43;;;1.35;;
35969;SDS011;22448;51.298;6.430;2022-10-16T15:54:46;11.55;;;1.30;;
35969;SDS011;22448;51.298;6.430;2022-10-16T15:57:20;6.30;;;1.50;;
35969;SDS011;22448;51.298;6.430;2022-10-16T15:59:47;5.25;;;2.00;;
35969;SDS011;22448;51.298;6.430;2022-10-16T16:02:15;4.32;;;1.65;;
35969;SDS011;22448;51.298;6.430;2022-10-16T16:04:42;5.97;;;1.40;;
35969;SDS011;22448;51.298;6.430;2022-10-16T16:07:10;4.28;;;1.65;;
35969;SDS011;22448;51.298;6.430;2022-10-16T16:09:37;8.93;;;1.77;;
35969;SDS011;22448;51.298;6.430;2022-10-16T16:12:03;4.75;;;2.30;;
35969;SDS011;22448;51.298;6.430;2022-10-16T16:14:30;9.00;;;2.72;;
35969;SDS011;22448;51.298;6.430;2022-10-16T16:16:57;6.82;;;3.00;;
35969;SDS011;22448;51.298;6.430;2022-10-16T16:19:24;3.80;;;1.33;;
35969;SDS011;22448;51.298;6.430;2022-10-16T16:21:51;5.45;;;1.55;;
35969;SDS011;22448;51.298;6.430;2022-10-16T16:24:18;6.30;;;1.40;;
35969;SDS011;22448;51.298;6.430;2022-10-16T16:26:45;4.30;;;1.20;;
35969;SDS011;22448;51.298;6.430;2022-10-16T16:29:13;8.85;;;3.20;;
35969;SDS011;22448;51.298;6.430;2022-10-16T16:31:41;11.57;;;4.40;;
35969;SDS011;22448;51.298;6.430;2022-10-16T16:34:09;11.45;;;3.30;;
35969;SDS011;22448;51.298;6.430;2022-10-16T16:36:37;6.53;;;2.50;;
35969;SDS011;22448;51.298;6.430;2022-10-16T16:39:03;6.95;;;3.55;;
35969;SDS011;22448;51.298;6.430;2022-10-16T16:41:30;9.43;;;3.90;;
35969;SDS011;22448;51.298;6.430;2022-10-16T16:44:06;13.25;;;4.35;;
35969;SDS011;22448;51.298;6.430;2022-10-16T16:46:35;9.77;;;3.47;;
35969;SDS011;22448;51.298;6.430;2022-10-16T16:49:03;7.32;;;2.95;;
35969;SDS011;22448;51.298;6.430;2022-10-16T16:51:30;10.07;;;3.25;;
35969;SDS011;22448;51.298;6.430;2022-10-16T16:54:00;11.32;;;2.75;;
35969;SDS011;22448;51.298;6.430;2022-10-16T16:56:26;9.63;;;2.53;;